PWSweather.com
Personal Weather Stations
Station Observations
KNCGREEN1
Sw Greensboro, Greensboro, NC 27407

Sw GreensboroGreensboro, NC 27407

Lat: 36.04, Lon: -79.87

Elevation: 870

Station Type: Davis

http://www.weathertrek.com

Latest ConditionsUpdated 4:15:08 AM EST Thursday, Nov 27, 2014
Currently Today's Max Today's Min Today's Average
Temperature 41.2°F5.1°C 41.2°F5.1°C 39.9°F4.4°C 40.8°F4.9°C
Dew Point 39.6°F4.2°C 39.6°F4.2°C 38.0°F3.3°C 39.1°F3.9°C
Winds Calm Calm 1.0 mph ENE1.6 kmh ENE - 0.0 mph 0.0 kmh
Wind Gusts 1.0 mph1.6 kmh 3.0 mph4.8 kmh - -
Humidity 94% 94% 93% 94%
Pressure 29.94 in1013.9 mb 29.99 in1015.6 mb 29.94 in1013.9 mb -
Hour Temp Dew Point Humidity Winds Wind Gusts Pressure Precip Precip Rate Daily Precip Total
04:15 AM 41.2°F5.1°C 39.6°F4.2°C 94% Calm Calm 1.0 mph1.6 kmh 29.94 in1013.9 mb 0.00 in0.0 mm 0.00 in/hr0.0 mm/hr 0.13 in3.3 mm
04:10 AM 41.2°F5.1°C 39.6°F4.2°C 94% Calm Calm 1.0 mph1.6 kmh 29.94 in1013.9 mb 0.00 in0.0 mm 0.00 in/hr0.0 mm/hr 0.13 in3.3 mm
04:05 AM 41.2°F5.1°C 39.6°F4.2°C 94% Calm Calm -- 29.94 in1013.9 mb 0.00 in0.0 mm 0.00 in/hr0.0 mm/hr 0.13 in3.3 mm
04:00 AM 41.2°F5.1°C 39.6°F4.2°C 94% Calm Calm -- 29.94 in1013.9 mb 0.01 in0.3 mm 0.00 in/hr0.0 mm/hr 0.13 in3.3 mm
03:55 AM 41.2°F5.1°C 39.6°F4.2°C 94% Calm Calm -- 29.95 in1014.2 mb 0.01 in0.3 mm 0.00 in/hr0.0 mm/hr 0.13 in3.3 mm
03:50 AM 41.2°F5.1°C 39.6°F4.2°C 94% Calm Calm -- 29.95 in1014.2 mb 0.01 in0.3 mm 0.00 in/hr0.0 mm/hr 0.13 in3.3 mm
03:45 AM 41.1°F5.1°C 39.5°F4.2°C 94% Calm Calm -- 29.95 in1014.2 mb 0.01 in0.3 mm 0.00 in/hr0.0 mm/hr 0.13 in3.3 mm
03:40 AM 41.2°F5.1°C 39.6°F4.2°C 94% Calm Calm -- 29.95 in1014.2 mb 0.01 in0.3 mm 0.00 in/hr0.0 mm/hr 0.13 in3.3 mm
03:35 AM 40.9°F4.9°C 39.3°F4.1°C 94% Calm Calm -- 29.95 in1014.2 mb 0.01 in0.3 mm 0.00 in/hr0.0 mm/hr 0.13 in3.3 mm
03:30 AM 40.9°F4.9°C 39.3°F4.1°C 94% Calm Calm 1.0 mph1.6 kmh 29.94 in1013.9 mb 0.01 in0.3 mm 0.00 in/hr0.0 mm/hr 0.13 in3.3 mm
03:25 AM 41.1°F5.1°C 39.5°F4.2°C 94% Calm Calm 1.0 mph1.6 kmh 29.94 in1013.9 mb 0.01 in0.3 mm 0.00 in/hr0.0 mm/hr 0.13 in3.3 mm
03:20 AM 41.1°F5.1°C 39.5°F4.2°C 94% Calm Calm 1.0 mph1.6 kmh 29.94 in1013.9 mb 0.01 in0.3 mm 0.00 in/hr0.0 mm/hr 0.13 in3.3 mm
03:15 AM 41.1°F5.1°C 39.5°F4.2°C 94% 1.0 mph ENE1.6 kmh ENE 1.0 mph1.6 kmh 29.95 in1014.2 mb 0.01 in0.3 mm 0.00 in/hr0.0 mm/hr 0.13 in3.3 mm
03:10 AM 41.1°F5.1°C 39.5°F4.2°C 94% Calm Calm 1.0 mph1.6 kmh 29.95 in1014.2 mb 0.01 in0.3 mm 0.00 in/hr0.0 mm/hr 0.13 in3.3 mm
03:05 AM 40.9°F4.9°C 39.3°F4.1°C 94% Calm Calm 1.0 mph1.6 kmh 29.95 in1014.2 mb 0.01 in0.3 mm 0.00 in/hr0.0 mm/hr 0.13 in3.3 mm
03:00 AM 40.9°F4.9°C 39.3°F4.1°C 94% Calm Calm 3.0 mph4.8 kmh 29.95 in1014.2 mb 0.01 in0.3 mm 0.00 in/hr0.0 mm/hr 0.13 in3.3 mm
02:55 AM 41.1°F5.1°C 39.5°F4.2°C 94% Calm Calm 1.0 mph1.6 kmh 29.95 in1014.2 mb 0.01 in0.3 mm 0.12 in/hr3.0 mm/hr 0.13 in3.3 mm
02:50 AM 41.1°F5.1°C 39.5°F4.2°C 94% Calm Calm 1.0 mph1.6 kmh 29.95 in1014.2 mb 0.00 in0.0 mm 0.00 in/hr0.0 mm/hr 0.12 in3.0 mm
02:45 AM 40.9°F4.9°C 39.3°F4.1°C 94% Calm Calm 1.0 mph1.6 kmh 29.96 in1014.6 mb 0.00 in0.0 mm 0.00 in/hr0.0 mm/hr 0.12 in3.0 mm
02:40 AM 40.9°F4.9°C 39.3°F4.1°C 94% Calm Calm -- 29.96 in1014.6 mb 0.00 in0.0 mm 0.00 in/hr0.0 mm/hr 0.12 in3.0 mm
02:35 AM 40.9°F4.9°C 39.3°F4.1°C 94% Calm Calm -- 29.96 in1014.6 mb 0.00 in0.0 mm 0.00 in/hr0.0 mm/hr 0.12 in3.0 mm
02:30 AM 40.9°F4.9°C 39.3°F4.1°C 94% Calm Calm 1.0 mph1.6 kmh 29.97 in1014.9 mb 0.00 in0.0 mm 0.00 in/hr0.0 mm/hr 0.12 in3.0 mm
02:25 AM 40.8°F4.9°C 39.2°F4.0°C 94% Calm Calm 1.0 mph1.6 kmh 29.97 in1014.9 mb 0.00 in0.0 mm 0.00 in/hr0.0 mm/hr 0.12 in3.0 mm
02:20 AM 40.6°F4.8°C 39.0°F3.9°C 94% Calm Calm 1.0 mph1.6 kmh 29.97 in1014.9 mb 0.00 in0.0 mm 0.00 in/hr0.0 mm/hr 0.12 in3.0 mm
02:15 AM 40.6°F4.8°C 39.0°F3.9°C 94% Calm Calm -- 29.96 in1014.6 mb 0.00 in0.0 mm 0.00 in/hr0.0 mm/hr 0.12 in3.0 mm
02:10 AM 40.6°F4.8°C 39.0°F3.9°C 94% Calm Calm -- 29.96 in1014.6 mb 0.00 in0.0 mm 0.00 in/hr0.0 mm/hr 0.12 in3.0 mm
02:05 AM 40.5°F4.7°C 38.9°F3.8°C 94% Calm Calm -- 29.96 in1014.6 mb 0.00 in0.0 mm 0.00 in/hr0.0 mm/hr 0.12 in3.0 mm
02:00 AM 40.5°F4.7°C 38.9°F3.8°C 94% Calm Calm -- 29.96 in1014.6 mb 0.00 in0.0 mm 0.00 in/hr0.0 mm/hr 0.12 in3.0 mm
01:55 AM 40.5°F4.7°C 38.9°F3.8°C 94% Calm Calm -- 29.97 in1014.9 mb 0.00 in0.0 mm 0.00 in/hr0.0 mm/hr 0.12 in3.0 mm
01:50 AM 40.3°F4.6°C 38.7°F3.7°C 94% Calm Calm -- 29.97 in1014.9 mb 0.00 in0.0 mm 0.00 in/hr0.0 mm/hr 0.12 in3.0 mm
01:45 AM 40.2°F4.6°C 38.6°F3.7°C 94% Calm Calm -- 29.96 in1014.6 mb 0.00 in0.0 mm 0.00 in/hr0.0 mm/hr 0.12 in3.0 mm
01:40 AM 40.1°F4.5°C 38.5°F3.6°C 94% Calm Calm -- 29.96 in1014.6 mb 0.00 in0.0 mm 0.00 in/hr0.0 mm/hr 0.12 in3.0 mm
01:35 AM 40.1°F4.5°C 38.5°F3.6°C 94% Calm Calm -- 29.96 in1014.6 mb 0.00 in0.0 mm 0.00 in/hr0.0 mm/hr 0.12 in3.0 mm
01:30 AM 39.9°F4.4°C 38.0°F3.3°C 93% Calm Calm -- 29.96 in1014.6 mb 0.00 in0.0 mm 0.00 in/hr0.0 mm/hr 0.12 in3.0 mm
01:25 AM 39.9°F4.4°C 38.0°F3.3°C 93% Calm Calm -- 29.96 in1014.6 mb 0.00 in0.0 mm 0.00 in/hr0.0 mm/hr 0.12 in3.0 mm
01:20 AM 40.1°F4.5°C 38.2°F3.4°C 93% Calm Calm -- 29.96 in1014.6 mb 0.00 in0.0 mm 0.00 in/hr0.0 mm/hr 0.12 in3.0 mm
01:15 AM 40.2°F4.6°C 38.3°F3.5°C 93% Calm Calm -- 29.96 in1014.6 mb 0.00 in0.0 mm 0.00 in/hr0.0 mm/hr 0.12 in3.0 mm
01:10 AM 40.2°F4.6°C 38.3°F3.5°C 93% Calm Calm -- 29.96 in1014.6 mb 0.00 in0.0 mm 0.00 in/hr0.0 mm/hr 0.12 in3.0 mm
01:05 AM 40.3°F4.6°C 38.4°F3.6°C 93% Calm Calm -- 29.96 in1014.6 mb 0.00 in0.0 mm 0.00 in/hr0.0 mm/hr 0.12 in3.0 mm
01:00 AM 40.5°F4.7°C 38.6°F3.7°C 93% Calm Calm -- 29.96 in1014.6 mb 0.02 in0.5 mm 0.00 in/hr0.0 mm/hr 0.12 in3.0 mm
12:55 AM 40.6°F4.8°C 38.7°F3.7°C 93% Calm Calm -- 29.96 in1014.6 mb 0.02 in0.5 mm 0.00 in/hr0.0 mm/hr 0.12 in3.0 mm
12:50 AM 40.8°F4.9°C 38.9°F3.8°C 93% Calm Calm -- 29.96 in1014.6 mb 0.02 in0.5 mm 0.00 in/hr0.0 mm/hr 0.12 in3.0 mm
12:45 AM 40.8°F4.9°C 38.9°F3.8°C 93% Calm Calm 1.0 mph1.6 kmh 29.98 in1015.2 mb 0.07 in1.8 mm 0.00 in/hr0.0 mm/hr 0.12 in3.0 mm
12:40 AM 40.9°F4.9°C 39.0°F3.9°C 93% Calm Calm 1.0 mph1.6 kmh 29.98 in1015.2 mb 0.07 in1.8 mm 0.00 in/hr0.0 mm/hr 0.12 in3.0 mm
12:35 AM 40.9°F4.9°C 39.0°F3.9°C 93% Calm Calm -- 29.98 in1015.2 mb 0.07 in1.8 mm 0.00 in/hr0.0 mm/hr 0.12 in3.0 mm
12:30 AM 40.9°F4.9°C 39.3°F4.1°C 94% Calm Calm -- 29.98 in1015.2 mb 0.10 in2.5 mm 0.00 in/hr0.0 mm/hr 0.12 in3.0 mm
12:25 AM 40.9°F4.9°C 39.3°F4.1°C 94% Calm Calm -- 29.98 in1015.2 mb 0.10 in2.5 mm 0.00 in/hr0.0 mm/hr 0.12 in3.0 mm
12:20 AM 41.1°F5.1°C 39.5°F4.2°C 94% Calm Calm -- 29.98 in1015.2 mb 0.10 in2.5 mm 0.00 in/hr0.0 mm/hr 0.12 in3.0 mm
12:15 AM 40.9°F4.9°C 39.3°F4.1°C 94% Calm Calm -- 29.99 in1015.6 mb 0.11 in2.8 mm 0.00 in/hr0.0 mm/hr 0.12 in3.0 mm
12:10 AM 41.1°F5.1°C 39.5°F4.2°C 94% Calm Calm -- 29.99 in1015.6 mb 0.11 in2.8 mm 0.00 in/hr0.0 mm/hr 0.12 in3.0 mm
12:05 AM 41.1°F5.1°C 39.2°F4.0°C 93% Calm Calm -- 29.99 in1015.6 mb 0.11 in2.8 mm 0.00 in/hr0.0 mm/hr 0.12 in3.0 mm
12:00 AM 41.1°F5.1°C 39.2°F4.0°C 93% Calm Calm 1.0 mph1.6 kmh 29.99 in1015.6 mb 0.12 in3.0 mm 0.00 in/hr0.0 mm/hr 0.12 in3.0 mm